createdAt,value
2019-05-28T00:01:07.540Z,7.33
2019-05-28T00:04:11.422Z,4.97
2019-05-28T00:07:15.329Z,7.50
2019-05-28T00:10:20.736Z,7.60
2019-05-28T00:13:24.555Z,9.57
2019-05-28T00:16:28.368Z,6.43
2019-05-28T00:19:32.173Z,8.40
2019-05-28T00:22:36.103Z,9.23
2019-05-28T00:25:39.986Z,10.20
2019-05-28T00:28:43.880Z,7.63
2019-05-28T00:31:47.690Z,8.20
2019-05-28T00:34:51.536Z,8.13
2019-05-28T00:37:55.371Z,10.20
2019-05-28T00:40:59.253Z,11.40
2019-05-28T00:44:03.223Z,9.77
2019-05-28T00:47:07.153Z,12.00
2019-05-28T00:50:11.894Z,14.30
2019-05-28T00:53:15.842Z,6.93
2019-05-28T00:56:20.243Z,8.33
2019-05-28T00:59:24.595Z,7.53
2019-05-28T01:02:28.514Z,6.93
2019-05-28T01:05:32.315Z,10.10
2019-05-28T01:08:36.317Z,7.70
2019-05-28T01:11:40.212Z,7.50
2019-05-28T01:14:44.047Z,9.37
2019-05-28T01:17:47.951Z,6.97
2019-05-28T01:20:51.833Z,5.93
2019-05-28T01:23:55.808Z,8.20
2019-05-28T01:26:59.651Z,6.90
2019-05-28T01:30:03.799Z,8.20
2019-05-28T01:33:07.697Z,4.33
2019-05-28T01:36:11.580Z,6.17
2019-05-28T01:39:15.425Z,4.60
2019-05-28T01:42:19.273Z,7.40
2019-05-28T01:45:24.537Z,6.20
2019-05-28T01:48:28.390Z,5.73
2019-05-28T01:51:32.203Z,9.33
2019-05-28T01:54:36.126Z,3.37
2019-05-28T01:57:39.945Z,6.97
2019-05-28T02:00:43.970Z,5.33
2019-05-28T02:03:47.843Z,6.27
2019-05-28T02:06:51.674Z,6.00
2019-05-28T02:09:55.477Z,7.30
2019-05-28T02:12:59.279Z,7.50
2019-05-28T02:16:03.249Z,4.80
2019-05-28T02:19:07.094Z,10.50
2019-05-28T02:22:10.984Z,6.43
2019-05-28T02:25:15.254Z,3.03
2019-05-28T02:28:19.218Z,6.93
2019-05-28T02:31:27.793Z,4.37
2019-05-28T02:34:28.645Z,4.30
2019-05-28T02:37:32.471Z,6.63
2019-05-28T02:40:36.350Z,4.77
2019-05-28T02:43:40.179Z,4.20
2019-05-28T02:46:44.056Z,3.70
2019-05-28T02:49:47.885Z,4.67
2019-05-28T02:52:51.780Z,4.00
2019-05-28T02:55:56.673Z,3.33
2019-05-28T02:59:01.236Z,7.67
2019-05-28T03:02:05.418Z,5.90
2019-05-28T03:05:09.495Z,4.67
2019-05-28T03:08:14.358Z,6.30
2019-05-28T03:11:18.273Z,5.70
2019-05-28T03:14:22.215Z,7.07
2019-05-28T03:17:27.961Z,6.33
2019-05-28T03:20:34.077Z,10.13
2019-05-28T03:23:39.413Z,8.60
2019-05-28T03:26:43.358Z,5.97
2019-05-28T03:29:47.313Z,3.67
2019-05-28T03:32:51.160Z,5.80
2019-05-28T03:35:57.326Z,6.20
2019-05-28T03:39:02.135Z,8.23
2019-05-28T03:42:05.969Z,9.07
2019-05-28T03:45:09.937Z,6.70
2019-05-28T03:48:14.120Z,5.87
2019-05-28T03:51:17.941Z,5.33
2019-05-28T03:54:21.849Z,10.23
2019-05-28T03:57:25.684Z,6.93
2019-05-28T04:00:29.604Z,6.73
2019-05-28T04:03:33.424Z,6.00
2019-05-28T04:06:37.390Z,6.27
2019-05-28T04:09:41.190Z,9.03
2019-05-28T04:12:45.093Z,6.43
2019-05-28T04:15:48.999Z,5.17
2019-05-28T04:18:52.835Z,8.93
2019-05-28T04:21:56.720Z,5.93
2019-05-28T04:25:00.613Z,5.00
2019-05-28T04:28:04.616Z,5.43
2019-05-28T04:31:08.562Z,7.27
2019-05-28T04:34:12.420Z,7.10
2019-05-28T04:37:16.338Z,7.27
2019-05-28T04:40:20.175Z,6.60
2019-05-28T04:43:24.028Z,4.53
2019-05-28T04:46:27.889Z,7.80
2019-05-28T04:49:31.799Z,6.63
2019-05-28T04:52:35.901Z,5.87
2019-05-28T04:55:39.886Z,5.83
2019-05-28T04:58:43.739Z,4.87
2019-05-28T05:01:47.614Z,10.83
2019-05-28T05:04:51.519Z,7.53
2019-05-28T05:07:55.424Z,9.63
2019-05-28T05:10:59.273Z,4.07
2019-05-28T05:14:03.172Z,6.27
2019-05-28T05:17:07.066Z,8.23
2019-05-28T05:20:10.958Z,8.17
2019-05-28T05:23:14.887Z,7.47
2019-05-28T05:26:18.724Z,7.83
2019-05-28T05:29:22.530Z,7.13
2019-05-28T05:32:27.848Z,4.93
2019-05-28T05:35:32.050Z,6.10
2019-05-28T05:38:35.942Z,7.37
2019-05-28T05:41:39.922Z,8.00
2019-05-28T05:44:43.876Z,6.10
2019-05-28T05:47:47.778Z,8.07
2019-05-28T05:50:51.683Z,4.83
2019-05-28T05:53:55.582Z,4.20
2019-05-28T05:56:59.402Z,5.23
2019-05-28T06:00:03.367Z,7.00
2019-05-28T06:03:07.290Z,5.70
2019-05-28T06:06:11.180Z,7.43
2019-05-28T06:09:15.131Z,5.93
2019-05-28T06:12:18.933Z,6.20
2019-05-28T06:15:22.911Z,3.00
2019-05-28T06:18:26.728Z,7.33
2019-05-28T06:21:30.576Z,1.87
2019-05-28T06:24:34.379Z,4.00
2019-05-28T06:27:38.229Z,4.47
2019-05-28T06:30:42.199Z,6.13
2019-05-28T06:33:56.082Z,2.20
2019-05-28T06:36:51.658Z,2.80
2019-05-28T06:39:55.457Z,6.07
2019-05-28T06:42:59.354Z,7.20
2019-05-28T06:46:03.253Z,9.30
2019-05-28T06:49:07.198Z,4.00
2019-05-28T06:52:10.930Z,2.13
2019-05-28T06:55:14.841Z,4.57
2019-05-28T06:58:18.680Z,9.03
2019-05-28T07:01:22.627Z,6.03
2019-05-28T07:04:32.633Z,6.43
2019-05-28T07:07:32.225Z,4.50
2019-05-28T07:10:36.046Z,5.63
2019-05-28T07:13:39.943Z,3.00
2019-05-28T07:16:53.234Z,3.07
2019-05-28T07:19:49.337Z,3.07
2019-05-28T07:22:53.245Z,5.10
2019-05-28T07:25:57.149Z,4.47
2019-05-28T07:29:00.970Z,5.20
2019-05-28T07:32:04.863Z,4.10
2019-05-28T07:35:08.881Z,7.03
2019-05-28T07:38:12.825Z,1.83
2019-05-28T07:41:16.651Z,2.10
2019-05-28T07:44:21.158Z,5.47
2019-05-28T07:47:25.008Z,5.97
2019-05-28T07:50:28.779Z,5.47
2019-05-28T07:53:39.994Z,3.97
2019-05-28T07:56:38.216Z,4.20
2019-05-28T07:59:42.052Z,5.93
2019-05-28T08:02:45.951Z,6.50
2019-05-28T08:05:49.875Z,6.47
2019-05-28T08:08:53.795Z,5.97
2019-05-28T08:11:57.661Z,2.70
2019-05-28T08:15:01.569Z,6.03
2019-05-28T08:18:05.640Z,2.07
2019-05-28T08:21:09.496Z,5.47
2019-05-28T08:24:13.371Z,3.97
2019-05-28T08:27:17.286Z,4.90
2019-05-28T08:30:21.278Z,2.37
2019-05-28T08:33:25.109Z,1.47
2019-05-28T08:36:29.007Z,5.30
2019-05-28T08:39:33.728Z,2.60
2019-05-28T08:42:37.737Z,2.63
2019-05-28T08:45:42.718Z,5.43
2019-05-28T08:48:46.926Z,4.33
2019-05-28T08:51:50.742Z,7.17
2019-05-28T08:54:54.616Z,3.20
2019-05-28T08:58:01.575Z,5.70
2019-05-28T09:01:04.083Z,4.00
2019-05-28T09:04:08.101Z,2.90
2019-05-28T09:07:11.928Z,6.13
2019-05-28T09:10:15.914Z,2.30
2019-05-28T09:13:19.700Z,5.27
2019-05-28T09:16:23.597Z,5.20
2019-05-28T09:19:27.423Z,3.57
2019-05-28T09:22:31.242Z,2.87
2019-05-28T09:25:35.130Z,3.53
2019-05-28T09:28:39.001Z,5.50
2019-05-28T09:31:42.993Z,2.63
2019-05-28T09:34:46.899Z,3.67
2019-05-28T09:37:50.872Z,3.13
2019-05-28T09:40:54.776Z,7.30
2019-05-28T09:43:58.612Z,2.10
2019-05-28T09:47:02.480Z,3.30
2019-05-28T09:50:27.033Z,5.77
2019-05-28T09:53:12.094Z,2.77
2019-05-28T09:56:16.198Z,1.73
2019-05-28T09:59:20.091Z,4.00
2019-05-28T10:02:24.035Z,3.60
2019-05-28T10:05:28.200Z,3.23
2019-05-28T10:08:32.099Z,5.93
2019-05-28T10:11:36.257Z,4.07
2019-05-28T10:14:40.364Z,2.77
2019-05-28T10:17:44.282Z,2.90
2019-05-28T10:20:48.270Z,3.90
2019-05-28T10:23:52.316Z,4.33
2019-05-28T10:26:56.339Z,3.63
2019-05-28T10:30:00.360Z,2.80
2019-05-28T10:33:04.306Z,4.57
2019-05-28T10:36:08.150Z,3.43
2019-05-28T10:39:12.127Z,3.83
2019-05-28T10:42:15.937Z,3.13
2019-05-28T10:45:20.489Z,4.73
2019-05-28T10:48:25.924Z,4.30
2019-05-28T10:51:29.838Z,4.63
2019-05-28T10:54:33.733Z,3.77
2019-05-28T10:57:37.638Z,2.27
2019-05-28T11:00:41.438Z,4.73
2019-05-28T11:03:47.178Z,4.23
2019-05-28T11:06:52.378Z,2.00
2019-05-28T11:09:56.375Z,0.37
2019-05-28T11:13:00.206Z,2.30
2019-05-28T11:16:04.294Z,2.93
2019-05-28T11:19:08.355Z,0.97
2019-05-28T11:22:12.169Z,0.97
2019-05-28T11:25:16.496Z,1.53
2019-05-28T11:28:20.402Z,5.97
2019-05-28T11:31:24.243Z,2.83
2019-05-28T11:34:28.138Z,1.87
2019-05-28T11:37:31.942Z,4.13
2019-05-28T11:40:35.806Z,2.87
2019-05-28T11:43:39.633Z,2.43
2019-05-28T11:46:43.461Z,1.37
2019-05-28T11:49:47.349Z,2.60
2019-05-28T11:52:51.193Z,2.00
2019-05-28T11:55:55.095Z,2.90
2019-05-28T11:58:58.986Z,3.33
2019-05-28T12:02:05.303Z,2.60
2019-05-28T12:05:09.982Z,2.23
2019-05-28T12:08:13.862Z,4.50
2019-05-28T12:11:17.749Z,3.77
2019-05-28T12:14:21.587Z,3.47
2019-05-28T12:17:41.396Z,1.57
2019-05-28T12:20:31.481Z,3.83
2019-05-28T12:23:35.340Z,2.47
2019-05-28T12:26:39.256Z,2.73
2019-05-28T12:29:51.794Z,1.83
2019-05-28T12:32:48.629Z,1.57
2019-05-28T12:35:52.511Z,1.03
2019-05-28T12:38:56.353Z,4.00
2019-05-28T12:42:04.413Z,2.60
2019-05-28T12:45:09.872Z,2.17
2019-05-28T12:48:13.376Z,0.60
2019-05-28T12:51:17.373Z,4.93
2019-05-28T12:54:21.182Z,1.93
2019-05-28T12:57:25.122Z,1.80
2019-05-28T13:00:31.009Z,3.07
2019-05-28T13:03:34.970Z,1.47
2019-05-28T13:06:38.821Z,3.10
2019-05-28T13:09:42.717Z,2.47
2019-05-28T13:12:46.522Z,2.70
2019-05-28T13:15:50.495Z,1.90
2019-05-28T13:18:54.315Z,3.33
2019-05-28T13:21:58.166Z,0.63
2019-05-28T13:25:02.058Z,1.70
2019-05-28T13:28:06.040Z,3.10
2019-05-28T13:31:09.855Z,2.10
2019-05-28T13:34:13.747Z,2.23
2019-05-28T13:37:17.570Z,3.70
2019-05-28T13:40:21.816Z,2.43
2019-05-28T13:43:25.733Z,2.97
2019-05-28T13:46:29.542Z,1.83
2019-05-28T13:49:33.405Z,0.53
2019-05-28T13:52:37.287Z,3.23
2019-05-28T13:55:41.140Z,2.73
2019-05-28T13:58:45.619Z,4.43
2019-05-28T14:01:49.543Z,3.17
2019-05-28T14:04:53.431Z,1.23
2019-05-28T14:07:57.265Z,2.83
2019-05-28T14:11:01.112Z,3.33
2019-05-28T14:14:05.360Z,2.17
2019-05-28T14:17:09.326Z,1.10
2019-05-28T14:20:14.022Z,1.23
2019-05-28T14:23:17.834Z,2.57
2019-05-28T14:26:21.712Z,3.90
2019-05-28T14:29:25.525Z,3.40
2019-05-28T14:32:29.313Z,3.50
2019-05-28T14:35:33.131Z,3.43
2019-05-28T14:38:37.012Z,2.83
2019-05-28T14:41:40.822Z,2.53
2019-05-28T14:44:44.741Z,3.60
2019-05-28T14:47:48.576Z,1.40
2019-05-28T14:50:52.400Z,2.87
2019-05-28T14:53:56.231Z,2.23
2019-05-28T14:57:00.203Z,3.20
2019-05-28T15:00:05.146Z,1.77
2019-05-28T15:03:09.073Z,3.20
2019-05-28T15:06:12.959Z,1.13
2019-05-28T15:09:20.718Z,3.13
2019-05-28T15:12:22.453Z,1.37
2019-05-28T15:15:36.036Z,1.73
2019-05-28T15:18:31.934Z,1.23
2019-05-28T15:21:35.981Z,0.77
2019-05-28T15:24:39.808Z,2.43
2019-05-28T15:27:43.746Z,6.77
2019-05-28T15:30:47.713Z,4.13
2019-05-28T15:33:51.527Z,0.70
2019-05-28T15:36:55.342Z,2.00
2019-05-28T15:39:59.196Z,4.30
2019-05-28T15:43:06.577Z,2.40
2019-05-28T15:46:08.523Z,2.20
2019-05-28T15:49:12.367Z,3.47
2019-05-28T15:52:16.251Z,1.90
2019-05-28T15:55:20.237Z,1.27
2019-05-28T15:58:25.077Z,1.40
2019-05-28T16:01:28.878Z,1.40
2019-05-28T16:04:33.829Z,1.73
2019-05-28T16:07:37.656Z,2.53
2019-05-28T16:10:41.509Z,0.57
2019-05-28T16:13:45.330Z,1.33
2019-05-28T16:16:49.169Z,4.50
2019-05-28T16:19:52.974Z,2.17
2019-05-28T16:22:56.856Z,3.70
2019-05-28T16:26:01.021Z,3.27
2019-05-28T16:29:05.203Z,5.63
2019-05-28T16:32:09.136Z,4.00
2019-05-28T16:35:13.422Z,4.00
2019-05-28T16:38:17.246Z,1.70
2019-05-28T16:41:21.137Z,2.77
2019-05-28T16:44:24.971Z,1.80
2019-05-28T16:47:28.807Z,16.87
2019-05-28T16:50:32.668Z,2.33
2019-05-28T16:53:36.712Z,2.87
2019-05-28T16:56:40.567Z,2.13
2019-05-28T16:59:47.201Z,2.43
2019-05-28T17:02:51.589Z,0.83
2019-05-28T17:05:55.968Z,1.67
2019-05-28T17:09:01.229Z,3.13
2019-05-28T17:12:05.201Z,1.80
2019-05-28T17:15:10.047Z,2.03
2019-05-28T17:18:13.845Z,1.83
2019-05-28T17:21:17.673Z,2.40
2019-05-28T17:24:21.670Z,4.10
2019-05-28T17:27:25.512Z,1.83
2019-05-28T17:30:29.511Z,1.10
2019-05-28T17:33:33.331Z,1.03
2019-05-28T17:36:37.177Z,1.37
2019-05-28T17:39:40.985Z,0.90
2019-05-28T17:42:44.820Z,4.23
2019-05-28T17:45:48.672Z,2.23
2019-05-28T17:48:52.591Z,4.40
2019-05-28T17:51:56.400Z,1.20
2019-05-28T17:55:00.242Z,1.67
2019-05-28T17:58:04.227Z,2.03
2019-05-28T18:01:08.186Z,2.67
2019-05-28T18:04:12.015Z,2.27
2019-05-28T18:07:15.804Z,1.90
2019-05-28T18:10:19.975Z,3.50
2019-05-28T18:13:23.871Z,2.43
2019-05-28T18:16:27.715Z,2.77
2019-05-28T18:19:31.657Z,2.17
2019-05-28T18:22:35.459Z,3.77
2019-05-28T18:25:39.440Z,2.43
2019-05-28T18:28:43.307Z,3.67
2019-05-28T18:31:47.195Z,3.07
2019-05-28T18:34:51.053Z,1.93
2019-05-28T18:38:03.361Z,0.90
2019-05-28T18:41:00.516Z,1.90
2019-05-28T18:44:04.724Z,1.50
2019-05-28T18:47:08.718Z,2.70
2019-05-28T18:50:12.975Z,4.17
2019-05-28T18:53:16.817Z,1.13
2019-05-28T18:56:20.686Z,1.43
2019-05-28T18:59:24.843Z,2.00
2019-05-28T19:02:28.882Z,2.83
2019-05-28T19:05:32.918Z,2.03
2019-05-28T19:08:36.863Z,1.57
2019-05-28T19:11:40.754Z,2.23
2019-05-28T19:14:44.665Z,3.90
2019-05-28T19:17:48.496Z,18.67
2019-05-28T19:20:52.354Z,14.37
2019-05-28T19:23:56.219Z,45.37
2019-05-28T19:27:00.062Z,24.73
2019-05-28T19:30:04.267Z,38.93
2019-05-28T19:33:08.152Z,23.83
2019-05-28T19:36:13.149Z,23.40
2019-05-28T19:39:17.483Z,4.63
2019-05-28T19:42:21.430Z,3.83
2019-05-28T19:45:25.259Z,2.93
2019-05-28T19:48:29.087Z,5.60
2019-05-28T19:51:32.920Z,2.60
2019-05-28T19:54:36.776Z,3.90
2019-05-28T19:57:40.606Z,2.80
2019-05-28T20:00:44.461Z,3.60
2019-05-28T20:03:48.294Z,3.60
2019-05-28T20:06:52.140Z,2.47
2019-05-28T20:09:55.965Z,3.80
2019-05-28T20:12:59.851Z,5.90
2019-05-28T20:16:03.790Z,1.87
2019-05-28T20:19:07.689Z,3.13
2019-05-28T20:22:11.605Z,3.40
2019-05-28T20:25:15.919Z,2.83
2019-05-28T20:28:20.127Z,2.63
2019-05-28T20:31:23.968Z,7.20
2019-05-28T20:34:27.802Z,1.80
2019-05-28T20:37:31.693Z,2.53
2019-05-28T20:40:35.556Z,3.73
2019-05-28T20:43:39.460Z,2.83
2019-05-28T20:46:43.374Z,2.53
2019-05-28T20:49:47.486Z,4.37
2019-05-28T20:52:51.465Z,4.50
2019-05-28T20:55:56.239Z,3.63
2019-05-28T20:59:01.454Z,2.77
2019-05-28T21:02:05.573Z,4.37
2019-05-28T21:05:09.394Z,3.00
2019-05-28T21:08:13.233Z,2.97
2019-05-28T21:11:17.069Z,2.00
2019-05-28T21:14:21.047Z,3.33
2019-05-28T21:17:24.975Z,3.33
2019-05-28T21:20:28.779Z,2.57
2019-05-28T21:23:32.773Z,5.20
2019-05-28T21:26:36.686Z,3.93
2019-05-28T21:29:40.638Z,2.17
2019-05-28T21:32:44.527Z,5.87
2019-05-28T21:35:48.389Z,4.63
2019-05-28T21:38:53.164Z,1.70
2019-05-28T21:41:59.864Z,4.40
2019-05-28T21:45:02.809Z,6.07
2019-05-28T21:48:06.843Z,4.47
2019-05-28T21:51:10.762Z,3.23
2019-05-28T21:54:14.652Z,4.33
2019-05-28T21:57:18.616Z,1.80
2019-05-28T22:00:37.681Z,4.43
2019-05-28T22:03:41.522Z,3.93
2019-05-28T22:06:45.416Z,5.23
2019-05-28T22:09:49.286Z,4.37
2019-05-28T22:12:53.227Z,3.13
2019-05-28T22:15:58.055Z,4.50
2019-05-28T22:19:02.754Z,3.93
2019-05-28T22:22:06.782Z,2.90
2019-05-28T22:25:10.896Z,4.73
2019-05-28T22:28:14.743Z,3.77
2019-05-28T22:31:18.733Z,7.43
2019-05-28T22:34:22.734Z,7.23
2019-05-28T22:37:26.669Z,3.17
2019-05-28T22:40:30.692Z,3.13
2019-05-28T22:43:34.492Z,5.43
2019-05-28T22:46:38.428Z,2.30
2019-05-28T22:49:42.383Z,3.03
2019-05-28T22:52:46.280Z,2.50
2019-05-28T22:55:50.186Z,4.27
2019-05-28T22:58:54.030Z,2.60
2019-05-28T23:01:58.736Z,3.23
2019-05-28T23:05:03.192Z,5.13
2019-05-28T23:08:07.813Z,2.53
2019-05-28T23:11:12.647Z,2.87
2019-05-28T23:14:16.478Z,6.27
2019-05-28T23:17:20.315Z,6.87
2019-05-28T23:20:24.335Z,2.37
2019-05-28T23:23:28.178Z,4.13
2019-05-28T23:26:32.082Z,2.97
2019-05-28T23:29:36.070Z,3.67
2019-05-28T23:32:40.035Z,3.97
2019-05-28T23:35:43.950Z,5.60
2019-05-28T23:38:47.786Z,4.10
2019-05-28T23:41:51.627Z,3.20
2019-05-28T23:44:55.530Z,4.00
2019-05-28T23:47:59.376Z,2.97
2019-05-28T23:51:04.256Z,4.67
2019-05-28T23:54:08.242Z,3.53
2019-05-28T23:57:12.091Z,1.20
